Latest Weather Observations for Cato Island

IDQ60801

Issued at 10:05 pm EST Monday 22 September 2014 (issued every 30 minutes, with the page automatically refreshed every 10 minutes)

About weather observations | Map of weather stations | Latest weather observations for QLD | Other Formats
Station Details ID: 200601 Name: CATO ISLAND Lat: -23.25 Lon: 155.54 Height: 6.3 m
Data from the previous 72 hours. | See also: Recent months for locations in Queensland
Date/Time
EST
Temp
°C
App
Temp
°C
Dew
Point
Rel
Hum
%
Delta-T
°C
Wind Press
QNH
hPa
Press
MSL
hPa
Rain
since 9 am
mm
Dir
 
Spd
km/h
Gust
km/h
Spd
kts
Gust
kts
22/10:00pm 21.1 - - - - ESE 46 57 25 31 1023.4 1023.4 -
22/09:30pm 20.8 - - - - ESE 50 61 27 33 1023.5 - -
22/09:00pm 21.4 - - - - E 48 56 26 30 1022.9 1022.8 -
22/08:30pm 21.3 - - - - E 46 54 25 29 1023.3 - -
22/08:00pm 21.1 - - - - E 48 56 26 30 1023.5 1023.5 -
22/07:30pm 20.9 - - - - ESE 52 61 28 33 1022.7 - -
22/07:00pm 21.1 - - - - ESE 54 63 29 34 1022.4 1022.4 -
22/06:30pm 21.2 - - - - ESE 56 65 30 35 1022.4 - -
22/06:00pm 20.9 - - - - ESE 43 56 23 30 1021.9 1021.9 -
22/05:30pm 20.2 - - - - ESE 48 57 26 31 1021.6 - -
22/05:00pm 21.0 - - - - E 52 59 28 32 1021.4 1021.4 -
22/04:30pm 21.7 - - - - ESE 44 52 24 28 1021.0 - -
22/04:00pm 21.4 - - - - ESE 44 54 24 29 1020.9 1020.8 -
22/03:30pm 21.6 - - - - ESE 43 52 23 28 1021.0 - -
22/03:00pm 21.4 - - - - E 44 52 24 28 1020.8 1020.8 -
22/02:30pm 21.5 - - - - ESE 46 54 25 29 1020.6 - -
22/02:00pm 21.4 - - - - ESE 48 56 26 30 1020.6 1020.6 -
22/01:30pm 21.6 - - - - ESE 46 54 25 29 1021.0 - -
22/01:00pm 21.4 - - - - E 46 54 25 29 1021.2 1021.2 -
22/12:30pm 21.7 - - - - E 48 57 26 31 1021.5 - -
22/12:00pm 21.6 - - - - E 50 56 27 30 1021.8 1021.8 -
22/11:30am 21.6 - - - - E 48 54 26 29 1022.2 - -
22/11:00am 21.7 - - - - E 48 57 26 31 1022.3 1022.2 -
22/10:30am 21.7 - - - - E 48 57 26 31 1022.6 - -
22/10:00am 21.5 - - - - E 46 56 25 30 1022.5 1022.6 -
22/09:30am 21.6 - - - - ESE 46 56 25 30 1022.6 - -
22/09:00am 21.4 - - - - ESE 46 56 25 30 1022.5 1022.5 -
22/08:30am 21.4 - - - - ESE 46 56 25 30 1022.7 - -
22/08:00am 21.3 - - - - E 46 54 25 29 1022.6 1022.6 -
22/07:30am 21.3 - - - - ESE 46 52 25 28 1022.4 - -
22/07:00am 21.3 - - - - ESE 48 57 26 31 1022.0 1022.0 -
22/06:30am 21.2 - - - - ESE 46 52 25 28 1021.6 - -
22/06:00am 21.2 - - - - ESE 46 54 25 29 1021.3 1021.4 -
22/05:30am 20.9 - - - - E 46 54 25 29 1021.2 - -
22/05:00am 21.0 - - - - E 46 52 25 28 1020.8 1020.8 -
22/04:30am 21.1 - - - - E 46 54 25 29 1020.6 - -
22/04:00am 21.0 - - - - ESE 46 52 25 28 1020.5 1020.5 -
22/03:30am 21.0 - - - - ESE 44 52 24 28 1020.3 - -
22/03:00am 21.1 - - - - E 44 52 24 28 1020.4 1020.4 -
22/02:30am 21.1 - - - - E 46 54 25 29 1020.7 - -
22/02:00am 21.1 - - - - E 43 52 23 28 1020.9 1021.0 -
22/01:30am 20.2 - - - - E 37 48 20 26 1021.4 - -
22/01:04am 20.4 - - - - ESE 46 65 25 35 1021.6 - -
22/01:00am 20.3 - - - - ESE 46 56 25 30 1021.8 1021.8 -
22/12:30am 20.3 - - - - ESE 44 54 24 29 1022.1 - -
22/12:00am 21.4 - - - - E 43 52 23 28 1022.3 1022.3 -
 
Date/Time
EST
Temp
°C
App
Temp
°C
Dew
Point
Rel
Hum
%
Delta-T
°C
Wind Press
QNH
hPa
Press
MSL
hPa
Rain
since 9 am
mm
Dir
 
Spd
km/h
Gust
km/h
Spd
kts
Gust
kts
21/11:30pm 21.2 - - - - E 43 54 23 29 1022.4 - -
21/11:00pm 21.3 - - - - ESE 44 54 24 29 1022.5 1022.5 -
21/10:30pm 21.2 - - - - E 43 50 23 27 1022.7 - -
21/10:00pm 20.7 - - - - E 44 52 24 28 1022.5 1022.5 -
21/09:30pm 20.9 - - - - ESE 44 59 24 32 1022.5 - -
21/09:00pm 21.1 - - - - ESE 43 48 23 26 1022.2 1022.2 -
21/08:30pm 21.4 - - - - ESE 41 50 22 27 1022.5 - -
21/08:00pm 21.4 - - - - ESE 41 46 22 25 1022.3 1022.3 -
21/07:30pm 21.4 - - - - E 41 48 22 26 1022.1 - -
21/07:00pm 21.3 - - - - ESE 41 50 22 27 1021.9 1021.9 -
21/06:30pm 21.4 - - - - ESE 44 50 24 27 1021.5 - -
21/06:00pm 21.3 - - - - ESE 44 50 24 27 1021.3 1021.3 -
21/05:30pm 21.4 - - - - ESE 41 50 22 27 1021.2 - -
21/05:00pm 21.5 - - - - E 41 48 22 26 1021.0 1021.0 -
21/04:30pm 21.6 - - - - ESE 43 50 23 27 1020.8 - -
21/04:00pm 21.6 - - - - ESE 41 48 22 26 1020.9 1020.9 -
21/03:30pm 21.6 - - - - ESE 41 46 22 25 1020.7 - -
21/03:00pm 21.8 - - - - ESE 41 46 22 25 1020.7 1020.7 -
21/02:30pm 21.7 - - - - ESE 41 50 22 27 1020.6 - -
21/02:00pm 22.0 - - - - ESE 43 46 23 25 1020.8 1020.7 -
21/01:30pm 21.6 - - - - ESE 43 50 23 27 1020.8 - -
21/01:00pm 21.3 - - - - ESE 39 44 21 24 1021.0 1021.0 -
21/12:30pm 22.2 - - - - ESE 35 41 19 22 1021.3 - -
21/12:00pm 22.2 - - - - ESE 35 41 19 22 1021.6 1021.6 -
21/11:30am 22.1 - - - - ESE 33 43 18 23 1021.8 - -
21/11:00am 22.0 - - - - ESE 37 43 20 23 1022.1 1022.1 -
21/10:30am 22.0 - - - - ESE 37 46 20 25 1022.4 - -
21/10:00am 22.0 - - - - ESE 35 43 19 23 1022.6 1022.7 -
21/09:30am 21.9 - - - - ESE 37 44 20 24 1022.8 - -
21/09:00am 21.9 - - - - ESE 37 43 20 23 1022.9 1022.9 -
21/08:30am 21.8 - - - - ESE 37 43 20 23 1022.5 - -
21/08:00am 21.6 - - - - ESE 35 43 19 23 1022.5 1022.5 -
21/07:30am 21.6 - - - - ESE 35 41 19 22 1022.2 - -
21/07:00am 21.5 - - - - ESE 37 43 20 23 1021.8 1021.8 -
21/06:30am 21.3 - - - - E 37 43 20 23 1021.4 - -
21/06:00am 21.4 - - - - E 37 44 20 24 1020.9 1020.9 -
21/05:30am 21.2 - - - - ESE 37 43 20 23 1020.5 - -
21/05:00am 21.0 - - - - ESE 35 41 19 22 1020.3 1020.4 -
21/04:30am 21.0 - - - - ESE 37 43 20 23 1020.2 - -
21/04:00am 21.1 - - - - ESE 39 46 21 25 1019.8 1019.8 -
21/03:30am 21.0 - - - - ESE 37 46 20 25 1019.6 - -
21/03:00am 20.9 - - - - ESE 35 41 19 22 1019.2 1019.3 -
21/02:30am 20.8 - - - - E 33 41 18 22 1019.6 - -
21/02:00am 21.0 - - - - E 33 43 18 23 1019.8 1019.8 -
21/01:30am 20.9 - - - - E 33 39 18 21 1020.1 - -
21/01:00am 20.8 - - - - E 35 41 19 22 1020.5 1020.5 -
21/12:30am 20.9 - - - - E 33 41 18 22 1020.8 - -
21/12:00am 21.0 - - - - E 32 41 17 22 1020.9 1020.9 -
 
Date/Time
EST
Temp
°C
App
Temp
°C
Dew
Point
Rel
Hum
%
Delta-T
°C
Wind Press
QNH
hPa
Press
MSL
hPa
Rain
since 9 am
mm
Dir
 
Spd
km/h
Gust
km/h
Spd
kts
Gust
kts
20/11:30pm 20.9 - - - - E 35 41 19 22 1021.2 - -
20/11:00pm 21.0 - - - - E 33 41 18 22 1021.3 1021.3 -
20/10:30pm 21.0 - - - - E 33 39 18 21 1021.3 - -
20/10:00pm 21.0 - - - - E 33 39 18 21 1021.3 1021.3 -
20/09:30pm 21.1 - - - - E 32 35 17 19 1021.4 - -
20/09:00pm 21.2 - - - - ESE 33 39 18 21 1021.1 1021.1 -
20/08:30pm 21.3 - - - - ESE 33 39 18 21 1020.8 - -
20/08:00pm 21.3 - - - - E 33 41 18 22 1020.5 1020.5 -
20/07:30pm 21.2 - - - - E 35 43 19 23 1020.2 - -
20/07:00pm 21.4 - - - - E 33 39 18 21 1019.9 1019.9 -
20/06:30pm 21.2 - - - - E 32 41 17 22 1019.7 - -
20/06:00pm 21.2 - - - - ESE 32 39 17 21 1019.4 1019.5 -
20/05:30pm 21.2 - - - - E 30 39 16 21 1019.0 - -
20/05:00pm 21.2 - - - - E 32 43 17 23 1018.6 1018.6 -
20/04:30pm 21.5 - - - - ESE 28 33 15 18 1018.4 - -
20/04:00pm 21.6 - - - - ESE 28 35 15 19 1018.3 1018.3 -
20/03:30pm 21.4 - - - - ESE 26 32 14 17 1018.1 - -
20/03:00pm 21.4 - - - - ESE 26 30 14 16 1017.9 1017.9 -
20/02:30pm 21.5 - - - - ESE 22 28 12 15 1018.0 - -
20/02:00pm 21.7 - - - - ESE 22 26 12 14 1018.1 1018.1 -
20/01:30pm 22.0 - - - - ESE 20 26 11 14 1018.4 - -
20/01:00pm 21.9 - - - - E 20 26 11 14 1018.6 1018.6 -
20/12:30pm 22.0 - - - - E 20 26 11 14 1018.9 - -
20/12:00pm 22.1 - - - - E 20 28 11 15 1019.1 1019.1 -
20/11:30am 22.7 - - - - E 20 26 11 14 1019.4 - -
20/11:00am 22.1 - - - - E 22 28 12 15 1019.8 1019.8 -
20/10:30am 22.0 - - - - E 24 28 13 15 1020.0 - -
20/10:00am 21.9 - - - - E 24 28 13 15 1020.0 1020.0 -
20/09:30am 21.8 - - - - E 26 32 14 17 1019.9 - -
20/09:00am 21.9 - - - - E 22 28 12 15 1020.0 1020.0 -
20/08:30am 21.9 - - - - E 22 28 12 15 1019.9 - -
20/08:00am 21.6 - - - - E 20 24 11 13 1019.8 1019.8 -
20/07:30am 21.5 - - - - E 20 26 11 14 1019.8 - -
20/07:00am 21.5 - - - - ENE 20 26 11 14 1019.3 1019.3 -
20/06:30am 21.0 - - - - ENE 22 28 12 15 1019.0 - -
20/06:00am 20.8 - - - - E 22 28 12 15 1018.8 1018.8 -
20/05:30am 20.4 - - - - ENE 24 33 13 18 1018.3 - -
20/05:00am 20.2 - - - - ENE 28 35 15 19 1017.8 1017.8 -
20/04:30am 20.4 - - - - ENE 26 33 14 18 1017.4 - -
20/04:00am 20.5 - - - - ENE 28 35 15 19 1017.2 1017.2 -
20/03:30am 20.5 - - - - ENE 24 32 13 17 1017.4 - -
20/03:00am 20.6 - - - - ENE 28 32 15 17 1017.4 1017.4 -
20/02:30am 20.6 - - - - ENE 26 33 14 18 1017.8 - -
20/02:00am 20.6 - - - - ENE 26 32 14 17 1018.2 1018.2 -
20/01:30am 20.8 - - - - E 28 35 15 19 1018.5 - -
20/01:00am 20.7 - - - - NE 26 32 14 17 1018.7 1018.7 -
20/12:30am 20.9 - - - - ENE 30 37 16 20 1019.0 - -
20/12:00am 21.0 - - - - ENE 28 35 15 19 1019.4 1019.4 -
 
Date/Time
EST
Temp
°C
App
Temp
°C
Dew
Point
Rel
Hum
%
Delta-T
°C
Wind Press
QNH
hPa
Press
MSL
hPa
Rain
since 9 am
mm
Dir
 
Spd
km/h
Gust
km/h
Spd
kts
Gust
kts
19/11:30pm 21.0 - - - - E 30 37 16 20 1019.7 - -
19/11:00pm 21.2 - - - - E 28 37 15 20 1019.8 1019.8 -
19/10:30pm 21.2 - - - - E 30 37 16 20 1020.0 - -

Other Formats:

Comma delimited format used in spreadsheet applications
http://www.bom.gov.au/fwo/IDQ60801/IDQ60801.94394.axf

JavaScript Object Notation format (JSON) in row-major order
http://www.bom.gov.au/fwo/IDQ60801/IDQ60801.94394.json